Time;durP1;ratioP1;P1;durP2;ratioP2;P2;SDS_P1;SDS_P2;PMS_P1;PMS_P2;Temp;Humidity;BMP_temperature;BMP_pressure;BME280_temperature;BME280_humidity;BME280_pressure;Samples;Min_cycle;Max_cycle;Signal;HPM_P1;HPM_P2
2024/03/22 00:02:10;;;;;;;21.55;13.95;;;15.50;62.70;17.20;101920.00;;;;4993721;28;20202;-76
2024/03/22 00:04:37;;;;;;;19.60;13.63;;;15.50;62.70;17.20;101913.00;;;;4989732;28;20234;-74
2024/03/22 00:07:04;;;;;;;18.88;13.40;;;15.50;62.70;17.20;101911.00;;;;4978684;28;20212;-77
2024/03/22 00:09:32;;;;;;;24.55;14.98;;;15.50;62.70;17.20;101911.00;;;;4993488;28;20200;-77
2024/03/22 00:11:58;;;;;;;19.88;13.45;;;15.60;62.80;17.20;101906.00;;;;4994033;28;20197;-76
2024/03/22 00:14:26;;;;;;;17.95;12.95;;;15.60;62.80;17.20;101910.00;;;;4996338;28;20272;-75
2024/03/22 00:16:52;;;;;;;19.55;13.63;;;15.60;62.90;17.20;101897.00;;;;4991139;28;20230;-76
2024/03/22 00:19:19;;;;;;;22.02;14.95;;;15.60;62.90;17.20;101890.00;;;;4991469;28;20845;-77
2024/03/22 00:21:45;;;;;;;19.70;13.90;;;15.60;62.90;17.20;101884.00;;;;4993829;28;20212;-76
2024/03/22 00:24:12;;;;;;;19.25;13.18;;;15.60;62.90;17.20;101871.00;;;;4994400;28;20202;-77
2024/03/22 00:26:39;;;;;;;19.90;14.10;;;15.60;62.90;17.20;101870.00;;;;4992625;28;20206;-75
2024/03/22 00:29:06;;;;;;;19.35;14.55;;;15.60;62.80;17.20;101860.00;;;;4990262;28;20197;-76
2024/03/22 00:31:34;;;;;;;21.33;13.63;;;15.60;62.90;17.20;101860.00;;;;4997418;28;20632;-76
2024/03/22 00:34:01;;;;;;;20.67;13.85;;;15.60;62.90;17.20;101852.00;;;;4999052;28;20205;-76
2024/03/22 00:36:27;;;;;;;21.10;13.57;;;15.60;62.80;17.20;101853.00;;;;4993704;28;20538;-76
2024/03/22 00:38:54;;;;;;;21.63;14.65;;;15.60;62.90;17.20;101845.00;;;;4988116;28;20214;-76
2024/03/22 00:41:20;;;;;;;23.27;13.68;;;15.60;63.00;17.20;101839.00;;;;4990696;28;20663;-73
2024/03/22 00:43:47;;;;;;;22.10;14.02;;;15.60;63.00;17.20;101840.00;;;;4994480;28;20237;-76
2024/03/22 00:46:14;;;;;;;21.42;14.93;;;15.50;62.90;17.20;101836.00;;;;4994029;28;20204;-76
2024/03/22 00:48:42;;;;;;;19.80;13.48;;;15.60;63.10;17.10;101825.00;;;;4995733;28;20577;-74
2024/03/22 00:51:08;;;;;;;20.35;14.57;;;15.60;63.10;17.10;101823.00;;;;4981834;28;20675;-76
2024/03/22 00:53:35;;;;;;;20.02;14.63;;;15.50;63.10;17.10;101818.00;;;;4992036;28;20202;-76
2024/03/22 00:56:01;;;;;;;21.20;14.63;;;15.50;63.10;17.10;101808.00;;;;4993883;28;20741;-76
2024/03/22 00:58:29;;;;;;;22.70;13.95;;;15.50;63.20;17.10;101809.00;;;;4994009;28;20205;-76
2024/03/22 01:00:55;;;;;;;23.23;15.05;;;15.50;63.20;17.10;101800.00;;;;4993760;28;20216;-74
2024/03/22 01:03:23;;;;;;;24.02;14.38;;;15.50;63.30;17.10;101802.00;;;;4991614;28;20205;-76
2024/03/22 01:05:50;;;;;;;25.27;15.15;;;15.50;63.30;17.10;101802.00;;;;4993886;28;20614;-76
2024/03/22 01:08:17;;;;;;;21.83;14.52;;;15.50;63.40;17.10;101800.00;;;;4993549;28;20229;-76
2024/03/22 01:10:43;;;;;;;21.40;14.65;;;15.40;63.30;17.10;101801.00;;;;4993581;28;20667;-76
2024/03/22 01:13:10;;;;;;;20.65;13.85;;;15.50;63.50;17.10;101798.00;;;;4991028;28;20201;-76
2024/03/22 01:15:37;;;;;;;27.63;15.10;;;15.40;63.30;17.10;101798.00;;;;4992570;28;20236;-76
2024/03/22 01:18:04;;;;;;;23.58;16.75;;;15.40;63.40;17.10;101798.00;;;;4993235;28;20189;-76
2024/03/22 01:20:31;;;;;;;22.60;14.48;;;15.40;63.50;17.10;101799.00;;;;4993150;28;20657;-75
2024/03/22 01:23:01;;;;;;;19.40;13.50;;;15.40;63.50;17.00;101798.00;;;;4992089;28;20213;-76
2024/03/22 01:25:27;;;;;;;23.55;15.20;;;15.40;63.60;17.10;101795.00;;;;4993350;28;20194;-75
2024/03/22 01:27:57;;;;;;;25.98;15.88;;;15.40;64.30;17.00;101787.00;;;;4992861;28;20206;-76
2024/03/22 01:30:23;;;;;;;21.80;14.48;;;15.40;63.70;17.00;101789.00;;;;4992646;28;20193;-76
2024/03/22 01:32:50;;;;;;;21.60;15.05;;;15.40;63.60;17.00;101789.00;;;;4988859;28;20723;-75
2024/03/22 01:35:16;;;;;;;21.40;14.38;;;15.40;63.70;17.00;101794.00;;;;4992687;28;20216;-76
2024/03/22 01:37:43;;;;;;;20.88;14.07;;;15.40;63.70;17.00;101792.00;;;;4992567;28;20685;-76
2024/03/22 01:40:13;;;;;;;23.63;14.27;;;15.40;63.80;17.00;101787.00;;;;4993537;28;20685;-76
2024/03/22 01:42:40;;;;;;;22.40;15.63;;;15.40;63.80;17.00;101779.00;;;;4991441;28;20269;-75
2024/03/22 01:45:08;;;;;;;27.65;16.58;;;15.40;63.80;17.00;101776.00;;;;4992199;28;20225;-76
2024/03/22 01:47:36;;;;;;;24.45;15.93;;;15.40;63.90;17.00;101779.00;;;;4992863;28;20294;-75
2024/03/22 01:50:02;;;;;;;25.10;16.58;;;15.40;64.00;17.00;101782.00;;;;4992892;28;20200;-75
2024/03/22 01:52:30;;;;;;;23.75;15.13;;;15.40;64.10;17.00;101779.00;;;;4992382;28;20201;-75
2024/03/22 01:54:56;;;;;;;25.17;15.50;;;15.40;64.20;17.00;101780.00;;;;4985935;28;20229;-75
2024/03/22 01:57:25;;;;;;;23.83;16.17;;;15.40;64.30;17.00;101771.00;;;;4993064;28;20202;-76
2024/03/22 01:59:57;;;;;;;27.45;17.30;;;15.40;64.40;17.00;101774.00;;;;4992875;28;20204;-75
2024/03/22 02:02:24;;;;;;;23.52;16.20;;;15.40;64.40;17.00;101775.00;;;;4992603;28;20228;-75
2024/03/22 02:04:51;;;;;;;27.60;17.38;;;15.40;64.40;17.00;101778.00;;;;4983415;28;20202;-76
2024/03/22 02:07:18;;;;;;;23.77;15.07;;;15.40;65.10;17.10;101766.00;;;;4985054;28;20195;-75
2024/03/22 02:09:44;;;;;;;26.27;17.20;;;15.50;64.40;17.10;101762.00;;;;4991935;28;20198;-75
2024/03/22 02:12:12;;;;;;;24.40;16.67;;;15.40;64.40;17.10;101760.00;;;;4992411;28;20666;-76
2024/03/22 02:14:39;;;;;;;24.45;15.85;;;15.40;64.40;17.10;101762.00;;;;4993203;28;20251;-76
2024/03/22 02:17:06;;;;;;;23.95;15.23;;;15.50;64.50;17.10;101758.00;;;;4990996;28;20204;-76
2024/03/22 02:19:32;;;;;;;27.83;15.93;;;15.50;64.50;17.00;101755.00;;;;4991591;28;20209;-77
2024/03/22 02:21:59;;;;;;;22.65;15.15;;;15.50;64.50;17.10;101753.00;;;;4987391;28;20860;-76
2024/03/22 02:24:27;;;;;;;23.25;15.25;;;15.50;64.50;17.10;101748.00;;;;4991787;28;20190;-77
2024/03/22 02:26:54;;;;;;;20.98;13.07;;;15.50;64.50;17.10;101747.00;;;;4989667;28;20233;-77
2024/03/22 02:29:20;;;;;;;21.65;14.55;;;15.50;64.50;17.10;101739.00;;;;4991241;28;20190;-76
2024/03/22 02:31:47;;;;;;;21.45;13.48;;;15.50;64.30;17.10;101738.00;;;;4992404;28;20206;-75
2024/03/22 02:34:13;;;;;;;20.98;13.15;;;15.50;64.40;17.10;101741.00;;;;4992420;28;20570;-77
2024/03/22 02:36:40;;;;;;;21.95;14.57;;;15.50;64.30;17.10;101744.00;;;;4991905;28;20222;-76
2024/03/22 02:39:06;;;;;;;21.00;15.30;;;15.60;64.30;17.10;101741.00;;;;4981659;28;20198;-76
2024/03/22 02:41:35;;;;;;;23.45;14.88;;;15.50;64.30;17.10;101735.00;;;;4992478;28;20272;-77
2024/03/22 02:44:01;;;;;;;23.35;15.18;;;15.60;64.30;17.10;101734.00;;;;4992054;28;20230;-78
2024/03/22 02:46:29;;;;;;;23.42;15.77;;;15.60;64.10;17.00;101738.00;;;;4991492;28;20676;-78
2024/03/22 02:48:55;;;;;;;22.92;14.57;;;15.50;64.00;17.00;101728.00;;;;4990798;28;20197;-75
2024/03/22 02:51:22;;;;;;;22.52;14.98;;;15.50;63.80;17.00;101722.00;;;;4991900;28;20197;-78
2024/03/22 02:53:48;;;;;;;22.02;13.57;;;15.50;63.80;16.90;101715.00;;;;4992217;28;20201;-77
2024/03/22 02:56:15;;;;;;;21.05;14.38;;;15.50;63.70;16.90;101710.00;;;;4992048;28;20228;-77
2024/03/22 02:58:43;;;;;;;24.88;14.60;;;15.40;63.60;16.90;101703.00;;;;4990635;28;20215;-77
2024/03/22 03:01:10;;;;;;;26.40;13.63;;;15.40;64.30;16.90;101696.00;;;;4992058;28;20651;-79
2024/03/22 03:03:36;;;;;;;21.70;13.20;;;15.40;63.60;16.80;101696.00;;;;4992215;28;20204;-76
2024/03/22 03:06:03;;;;;;;22.40;14.18;;;15.40;63.60;16.80;101690.00;;;;4993918;28;20201;-78
2024/03/22 03:08:29;;;;;;;21.65;13.43;;;15.40;63.60;16.80;101689.00;;;;4995471;28;20202;-76
2024/03/22 03:10:56;;;;;;;20.98;14.35;;;15.30;63.60;16.80;101694.00;;;;4995232;28;20198;-76
2024/03/22 03:13:22;;;;;;;24.00;15.15;;;15.30;63.70;16.80;101684.00;;;;4985779;28;20196;-75
2024/03/22 03:15:51;;;;;;;21.67;14.48;;;15.30;63.70;16.80;101676.00;;;;4994530;28;20272;-75
2024/03/22 03:18:17;;;;;;;22.30;14.93;;;15.30;63.70;16.80;101672.00;;;;4991658;28;20209;-75
2024/03/22 03:20:44;;;;;;;28.35;16.58;;;15.30;63.70;16.80;101675.00;;;;4995102;28;20567;-78
2024/03/22 03:23:10;;;;;;;28.13;17.02;;;15.30;63.70;16.80;101659.00;;;;4996243;28;20189;-77
2024/03/22 03:25:38;;;;;;;25.58;15.98;;;15.20;63.70;16.80;101663.00;;;;4995809;28;20194;-76
2024/03/22 03:28:04;;;;;;;25.60;15.43;;;15.30;63.70;16.80;101662.00;;;;4994130;28;20294;-73
2024/03/22 03:30:32;;;;;;;27.23;16.13;;;15.30;63.70;16.80;101655.00;;;;4995691;28;20679;-77
2024/03/22 03:32:59;;;;;;;28.77;16.17;;;15.30;63.80;16.70;101662.00;;;;4995252;28;20301;-77
2024/03/22 03:35:26;;;;;;;26.77;16.60;;;15.20;63.60;16.70;101654.00;;;;4995366;28;20244;-77
2024/03/22 03:37:53;;;;;;;26.60;16.17;;;15.20;63.70;16.70;101648.00;;;;4993842;28;20206;-76
2024/03/22 03:40:21;;;;;;;28.55;15.82;;;15.10;63.70;16.70;101643.00;;;;4996474;28;20200;-76
2024/03/22 03:42:48;;;;;;;29.30;17.85;;;15.20;63.70;16.70;101638.00;;;;4994974;28;20198;-76
2024/03/22 03:45:15;;;;;;;25.75;16.25;;;15.20;63.80;16.70;101633.00;;;;4994041;28;20229;-78
2024/03/22 03:47:41;;;;;;;29.15;17.33;;;15.20;63.70;16.60;101627.00;;;;4992560;28;20194;-78
2024/03/22 03:50:10;;;;;;;30.33;18.17;;;15.10;63.70;16.60;101622.00;;;;4993888;28;20281;-76
2024/03/22 03:52:36;;;;;;;28.42;17.98;;;15.10;63.70;16.60;101624.00;;;;4993564;28;20201;-76
2024/03/22 03:55:03;;;;;;;30.30;18.17;;;15.10;63.70;16.60;101620.00;;;;4993348;28;20222;-74
2024/03/22 03:57:29;;;;;;;32.10;18.85;;;15.00;63.80;16.60;101617.00;;;;5000512;28;20221;-79
2024/03/22 03:59:56;;;;;;;26.48;16.67;;;15.00;63.80;16.50;101607.00;;;;4994007;28;20224;-79
2024/03/22 04:02:22;;;;;;;30.55;18.70;;;15.00;63.80;16.50;101613.00;;;;4986766;28;20205;-76
2024/03/22 04:04:53;;;;;;;32.35;20.38;;;15.00;63.90;16.50;101615.00;;;;4993584;28;20209;-78
2024/03/22 04:07:21;;;;;;;28.67;18.10;;;15.00;63.90;16.50;101615.00;;;;4979696;28;20563;-78
2024/03/22 04:09:48;;;;;;;29.63;19.17;;;14.90;63.90;16.50;101612.00;;;;4993522;28;20604;-77
2024/03/22 04:12:14;;;;;;;30.92;19.15;;;14.90;63.80;16.40;101608.00;;;;4995353;28;20237;-76
2024/03/22 04:14:41;;;;;;;32.72;18.95;;;14.90;64.00;16.50;101612.00;;;;4994787;28;20190;-77
2024/03/22 04:17:07;;;;;;;35.53;21.67;;;14.90;63.80;16.40;101613.00;;;;4993288;28;20217;-79
2024/03/22 04:19:35;;;;;;;31.48;20.48;;;14.90;63.90;16.40;101607.00;;;;4987781;28;20217;-77
2024/03/22 04:22:00;;;;;;;33.15;20.10;;;14.90;63.90;16.40;101613.00;;;;4992499;28;20193;-77
2024/03/22 04:24:29;;;;;;;31.45;19.30;;;14.90;64.00;16.40;101614.00;;;;4984216;28;20205;-76
2024/03/22 04:26:55;;;;;;;32.28;19.83;;;14.90;64.00;16.40;101605.00;;;;4992892;28;20200;-78
2024/03/22 04:29:22;;;;;;;33.03;20.42;;;14.90;64.10;16.40;101605.00;;;;4991581;28;20205;-77
2024/03/22 04:31:48;;;;;;;29.77;19.17;;;14.80;64.00;16.40;101604.00;;;;4995035;28;20659;-79
2024/03/22 04:34:15;;;;;;;28.27;18.65;;;14.80;64.00;16.40;101595.00;;;;4993159;28;20646;-77
2024/03/22 04:36:41;;;;;;;28.17;19.02;;;14.80;64.00;16.40;101600.00;;;;4992269;28;20785;-76
2024/03/22 04:39:09;;;;;;;26.55;17.70;;;14.80;64.00;16.40;101592.00;;;;4992516;28;20289;-76
2024/03/22 04:41:38;;;;;;;29.63;17.85;;;14.80;64.10;16.40;101601.00;;;;4993136;28;20201;-77
2024/03/22 04:44:04;;;;;;;29.60;18.42;;;14.80;64.10;16.30;101605.00;;;;4954742;28;1123983;-77
2024/03/22 04:46:31;;;;;;;30.05;18.35;;;14.80;64.10;16.30;101609.00;;;;4988817;28;20209;-76
2024/03/22 04:48:57;;;;;;;30.15;17.88;;;14.80;64.10;16.30;101601.00;;;;4992060;28;20198;-78
2024/03/22 04:51:24;;;;;;;27.75;17.98;;;14.80;64.20;16.30;101621.00;;;;4986402;28;20205;-77
2024/03/22 04:53:50;;;;;;;28.08;17.55;;;14.80;64.20;16.30;101616.00;;;;4980048;28;20207;-78
2024/03/22 04:56:17;;;;;;;28.40;17.80;;;14.80;64.20;16.40;101622.00;;;;4989506;28;20253;-78
2024/03/22 04:58:45;;;;;;;27.80;17.67;;;14.80;64.30;16.30;101613.00;;;;4993790;28;20276;-78
2024/03/22 05:01:12;;;;;;;31.52;18.95;;;14.80;64.30;16.30;101615.00;;;;4993791;28;20201;-76
2024/03/22 05:03:40;;;;;;;26.20;16.88;;;14.80;64.40;16.30;101609.00;;;;4986872;28;20201;-75
2024/03/22 05:06:08;;;;;;;28.63;18.55;;;14.80;64.30;16.30;101607.00;;;;4993758;28;20240;-77
2024/03/22 05:08:34;;;;;;;28.08;18.15;;;14.70;64.20;16.30;101603.00;;;;4993904;28;20202;-77
2024/03/22 05:11:01;;;;;;;24.13;16.67;;;14.80;64.30;16.30;101612.00;;;;4993977;28;20197;-77
2024/03/22 05:13:27;;;;;;;26.52;17.70;;;14.70;64.20;16.30;101607.00;;;;4992253;28;20190;-77
2024/03/22 05:15:56;;;;;;;26.05;17.02;;;14.80;64.30;16.30;101598.00;;;;4994171;28;20239;-77
2024/03/22 05:18:22;;;;;;;30.27;19.77;;;14.70;64.20;16.30;101597.00;;;;4993601;28;20222;-80
2024/03/22 05:20:49;;;;;;;27.05;16.98;;;14.80;64.40;16.20;101602.00;;;;4998770;28;20212;-78
2024/03/22 05:23:16;;;;;;;25.25;17.17;;;14.70;64.20;16.20;101607.00;;;;4992351;28;20210;-79
2024/03/22 05:25:43;;;;;;;25.05;16.25;;;14.70;64.20;16.20;101605.00;;;;4990071;28;20202;-76
2024/03/22 05:28:09;;;;;;;25.38;17.15;;;14.70;64.20;16.20;101598.00;;;;4992253;28;20205;-78
2024/03/22 05:30:36;;;;;;;24.60;16.80;;;14.70;64.20;16.20;101598.00;;;;4991963;28;20201;-78
2024/03/22 05:33:04;;;;;;;25.55;17.17;;;14.70;64.20;16.20;101599.00;;;;4993312;28;20198;-79
2024/03/22 05:35:31;;;;;;;25.15;18.33;;;14.70;64.30;16.10;101595.00;;;;4992465;28;20728;-77
2024/03/22 05:37:57;;;;;;;26.85;17.88;;;14.70;64.30;16.20;101596.00;;;;4993640;28;20228;-77
2024/03/22 05:40:24;;;;;;;30.80;17.92;;;14.70;64.20;16.20;101594.00;;;;4990585;28;20247;-79
2024/03/22 05:42:51;;;;;;;30.27;19.17;;;14.60;64.30;16.10;101592.00;;;;4985869;28;20197;-81
2024/03/22 05:45:18;;;;;;;26.00;16.15;;;14.60;64.40;16.10;101594.00;;;;4992678;28;20222;-78
2024/03/22 05:47:44;;;;;;;26.25;17.23;;;14.60;64.40;16.10;101580.00;;;;4993021;28;20197;-78
2024/03/22 05:50:14;;;;;;;23.52;15.77;;;14.60;64.30;16.10;101577.00;;;;4991274;28;20611;-75
2024/03/22 05:52:40;;;;;;;26.08;16.90;;;14.60;64.40;16.10;101575.00;;;;4990161;28;20574;-77
2024/03/22 05:55:08;;;;;;;27.38;17.38;;;14.60;64.40;16.10;101566.00;;;;4992263;28;20329;-78
2024/03/22 05:57:34;;;;;;;21.13;14.60;;;14.60;64.40;16.10;101571.00;;;;4993579;28;20304;-77
2024/03/22 06:00:01;;;;;;;25.23;16.92;;;14.60;64.30;16.10;101559.00;;;;4992356;28;20194;-76
2024/03/22 06:02:27;;;;;;;24.83;15.95;;;14.60;64.30;16.10;101564.00;;;;4985467;28;20197;-77
2024/03/22 06:04:55;;;;;;;21.95;14.60;;;14.60;64.30;16.10;101572.00;;;;4988323;28;20198;-77
2024/03/22 06:07:22;;;;;;;22.23;14.75;;;14.60;64.30;16.10;101561.00;;;;4990849;28;20212;-78
2024/03/22 06:09:49;;;;;;;20.42;14.38;;;14.60;64.40;16.10;101560.00;;;;4992076;28;20205;-77
2024/03/22 06:12:17;;;;;;;24.13;15.85;;;14.60;64.30;16.10;101552.00;;;;4982761;28;20201;-78
2024/03/22 06:14:44;;;;;;;22.83;14.60;;;14.60;64.30;16.10;101555.00;;;;4986540;28;20651;-77
2024/03/22 06:17:11;;;;;;;21.98;15.15;;;14.60;64.30;16.10;101541.00;;;;4991795;28;20232;-75
2024/03/22 06:19:38;;;;;;;19.23;13.32;;;14.60;64.30;16.10;101552.00;;;;4991152;28;20218;-78
2024/03/22 06:22:05;;;;;;;23.65;15.43;;;14.60;64.30;16.10;101550.00;;;;4981009;28;20253;-77
2024/03/22 06:24:33;;;;;;;19.50;13.73;;;14.60;64.30;16.10;101549.00;;;;4989874;28;20634;-78
2024/03/22 06:27:00;;;;;;;18.90;12.38;;;14.60;64.30;16.10;101550.00;;;;4992258;28;20252;-75
2024/03/22 06:29:26;;;;;;;20.17;13.95;;;14.50;64.20;16.10;101553.00;;;;4994120;28;20220;-79
2024/03/22 06:31:53;;;;;;;19.67;12.88;;;14.60;64.30;16.10;101549.00;;;;4991719;28;20591;-76
2024/03/22 06:34:19;;;;;;;17.13;12.82;;;14.60;64.30;16.10;101547.00;;;;4991664;28;20194;-80
2024/03/22 06:36:46;;;;;;;19.23;12.63;;;14.60;64.40;16.10;101542.00;;;;4992207;28;20229;-78
2024/03/22 06:39:13;;;;;;;17.52;11.93;;;14.60;64.40;16.10;101538.00;;;;4990592;28;20202;-76
2024/03/22 06:41:41;;;;;;;17.85;11.73;;;14.60;64.30;16.10;101547.00;;;;4988291;28;20202;-77
2024/03/22 06:44:09;;;;;;;17.40;12.23;;;14.60;64.30;16.20;101543.00;;;;4988858;28;20363;-76
2024/03/22 06:46:37;;;;;;;18.77;12.15;;;14.60;64.30;16.20;101551.00;;;;4996140;28;20276;-77
2024/03/22 06:49:03;;;;;;;18.73;11.90;;;14.60;64.40;16.20;101549.00;;;;4990839;28;20245;-77
2024/03/22 06:51:30;;;;;;;21.08;13.35;;;14.60;64.50;16.20;101546.00;;;;4992178;28;20202;-77
2024/03/22 06:53:56;;;;;;;15.23;11.05;;;14.60;64.50;16.20;101549.00;;;;4984724;28;20205;-77
2024/03/22 06:56:23;;;;;;;19.85;12.45;;;14.70;64.50;16.30;101552.00;;;;4992122;28;20690;-76
2024/03/22 06:58:52;;;;;;;19.90;12.90;;;14.70;64.50;16.30;101546.00;;;;4990681;28;20194;-80
2024/03/22 07:01:20;;;;;;;20.08;12.45;;;14.70;64.60;16.30;101549.00;;;;4990084;28;20198;-79
2024/03/22 07:03:47;;;;;;;18.58;12.38;;;14.70;64.60;16.40;101556.00;;;;4990162;28;20288;-76
2024/03/22 07:06:14;;;;;;;19.35;12.98;;;14.80;64.60;16.40;101555.00;;;;4978651;28;20221;-82
2024/03/22 07:08:42;;;;;;;19.77;12.07;;;14.80;64.60;16.40;101544.00;;;;4992414;28;20190;-82
2024/03/22 07:11:08;;;;;;;19.42;12.40;;;14.80;64.50;16.50;101554.00;;;;4982476;28;20201;-84
2024/03/22 07:13:35;;;;;;;20.40;13.23;;;14.90;64.50;16.50;101549.00;;;;4989605;28;20252;-76
2024/03/22 07:16:04;;;;;;;19.25;13.38;;;14.90;64.40;16.50;101545.00;;;;4990721;28;20222;-81
2024/03/22 07:18:31;;;;;;;19.55;12.63;;;14.90;64.40;16.60;101541.00;;;;4992229;28;20247;-85
2024/03/22 07:20:58;;;;;;;21.70;13.68;;;15.00;64.40;16.60;101553.00;;;;4992364;28;20734;-81
2024/03/22 07:23:25;;;;;;;21.10;13.35;;;15.00;64.40;16.60;101551.00;;;;4991361;28;20676;-81
2024/03/22 07:25:51;;;;;;;22.25;12.75;;;15.10;64.30;16.60;101546.00;;;;4991079;28;20285;-80
2024/03/22 07:28:18;;;;;;;22.33;13.35;;;15.00;64.10;16.70;101550.00;;;;4987813;28;20201;-83
2024/03/22 07:30:44;;;;;;;20.15;12.65;;;15.10;64.20;16.70;101554.00;;;;4991642;28;20280;-80
2024/03/22 07:33:16;;;;;;;21.90;12.70;;;15.10;64.00;16.60;101547.00;;;;4992022;28;20562;-81
2024/03/22 07:35:42;;;;;;;20.65;13.77;;;15.10;64.00;16.70;101548.00;;;;4991413;28;20200;-80
2024/03/22 07:38:09;;;;;;;22.33;14.32;;;15.10;64.70;16.70;101558.00;;;;4992460;28;20194;-84
2024/03/22 07:40:35;;;;;;;21.40;13.73;;;15.20;64.00;16.70;101556.00;;;;4992523;28;20204;-83
2024/03/22 07:43:05;;;;;;;21.92;13.05;;;15.20;63.90;16.70;101553.00;;;;4991674;28;20205;-85
2024/03/22 07:45:32;;;;;;;20.13;12.50;;;15.20;63.90;16.70;101554.00;;;;4991562;28;20232;-83
2024/03/22 07:47:59;;;;;;;19.70;12.82;;;15.20;63.70;16.70;101558.00;;;;4992016;28;20205;-84
2024/03/22 07:50:27;;;;;;;20.88;13.35;;;15.20;63.60;16.70;101550.00;;;;4991444;28;20201;-85
2024/03/22 07:52:54;;;;;;;23.30;13.80;;;15.30;63.60;16.70;101555.00;;;;4992067;28;20245;-82
2024/03/22 07:55:21;;;;;;;17.15;12.05;;;15.20;63.50;16.70;101549.00;;;;4985429;28;20271;-81
2024/03/22 07:57:48;;;;;;;17.40;12.40;;;15.20;63.50;16.70;101542.00;;;;4995034;28;20225;-80
2024/03/22 08:00:15;;;;;;;20.70;13.95;;;15.20;63.60;16.70;101542.00;;;;4994398;28;20747;-84
2024/03/22 08:02:43;;;;;;;25.38;13.32;;;15.20;63.60;16.70;101545.00;;;;4995580;28;20300;-80
2024/03/22 08:05:09;;;;;;;21.30;12.27;;;15.20;63.60;16.70;101542.00;;;;4994878;28;20205;-83
2024/03/22 08:07:38;;;;;;;19.88;12.82;;;15.20;63.60;16.70;101545.00;;;;4995525;28;20268;-82
2024/03/22 08:10:05;;;;;;;24.70;13.35;;;15.20;63.60;16.70;101549.00;;;;4994852;28;20205;-80
2024/03/22 08:12:32;;;;;;;20.27;13.07;;;15.20;63.60;16.80;101547.00;;;;4975779;28;20234;-81
2024/03/22 08:14:58;;;;;;;23.75;13.15;;;15.20;63.60;16.70;101549.00;;;;4994902;28;20225;-79
2024/03/22 08:17:25;;;;;;;21.92;13.57;;;15.20;63.60;16.70;101542.00;;;;4993406;28;20281;-83
2024/03/22 08:19:51;;;;;;;21.25;14.02;;;15.20;63.60;16.70;101548.00;;;;4991796;28;20210;-80
2024/03/22 08:22:18;;;;;;;22.17;13.60;;;15.20;63.60;16.70;101546.00;;;;4994664;28;20205;-80
2024/03/22 08:24:46;;;;;;;20.88;14.55;;;15.20;63.90;16.70;101549.00;;;;4994086;28;20309;-81
2024/03/22 08:27:13;;;;;;;21.15;13.75;;;15.20;63.60;16.70;101549.00;;;;4995144;28;20197;-85
2024/03/22 08:29:40;;;;;;;20.92;14.15;;;15.20;63.60;16.70;101551.00;;;;4994984;28;20213;-79
2024/03/22 08:32:08;;;;;;;19.65;13.10;;;15.20;63.70;16.70;101549.00;;;;4994660;28;20213;-83
2024/03/22 08:34:34;;;;;;;22.00;13.77;;;15.20;63.80;16.70;101544.00;;;;4994785;28;20678;-80
2024/03/22 08:37:03;;;;;;;21.10;14.13;;;15.20;63.80;16.70;101548.00;;;;4994490;28;20229;-80
2024/03/22 08:39:29;;;;;;;19.10;13.27;;;15.20;63.90;16.70;101543.00;;;;4994213;28;20212;-81
2024/03/22 08:41:58;;;;;;;21.95;13.30;;;15.20;64.00;16.70;101550.00;;;;4994870;28;20300;-81
2024/03/22 08:44:24;;;;;;;20.70;12.98;;;15.20;64.10;16.70;101546.00;;;;4994328;28;20237;-83
2024/03/22 08:46:51;;;;;;;18.63;12.95;;;15.10;64.00;16.60;101538.00;;;;4994112;28;20301;-82
2024/03/22 08:49:19;;;;;;;19.77;12.73;;;15.20;64.20;16.70;101539.00;;;;4993497;28;20209;-81
2024/03/22 08:51:48;;;;;;;20.55;12.23;;;15.10;64.20;16.60;101545.00;;;;4994342;28;20241;-79
2024/03/22 08:54:14;;;;;;;21.10;12.27;;;15.20;64.30;16.60;101547.00;;;;4994498;28;20193;-79
2024/03/22 08:56:41;;;;;;;19.10;13.32;;;15.20;64.30;16.60;101536.00;;;;4993204;28;20228;-81
2024/03/22 08:59:10;;;;;;;20.00;12.75;;;15.10;64.30;16.60;101534.00;;;;4993358;28;20197;-79
2024/03/22 09:01:37;;;;;;;18.20;12.68;;;15.10;64.50;16.60;101533.00;;;;4994936;28;20216;-78
2024/03/22 09:04:04;;;;;;;20.27;13.23;;;15.10;64.50;16.60;101526.00;;;;4993084;28;20256;-78
2024/03/22 09:06:31;;;;;;;20.80;13.05;;;15.10;64.80;16.60;101526.00;;;;4993839;28;20663;-80
2024/03/22 09:08:57;;;;;;;19.63;13.25;;;15.10;64.80;16.60;101526.00;;;;4994265;28;20201;-78
2024/03/22 09:11:25;;;;;;;18.20;11.27;;;15.00;64.70;16.60;101534.00;;;;4993926;28;20272;-78
2024/03/22 09:13:52;;;;;;;17.50;11.75;;;15.00;64.80;16.60;101526.00;;;;4994134;28;20285;-79
2024/03/22 09:16:21;;;;;;;21.38;13.77;;;15.00;64.80;16.60;101527.00;;;;4993964;28;20241;-81
2024/03/22 09:18:47;;;;;;;15.68;11.18;;;15.00;64.90;16.60;101520.00;;;;4995069;28;20225;-79
2024/03/22 09:21:14;;;;;;;21.15;11.55;;;15.00;65.00;16.60;101518.00;;;;4994630;28;20244;-79
2024/03/22 09:23:40;;;;;;;17.17;11.93;;;15.10;65.10;16.60;101522.00;;;;4994020;28;20244;-79
2024/03/22 09:26:07;;;;;;;20.48;12.73;;;15.10;65.10;16.60;101518.00;;;;4994791;28;20201;-77
2024/03/22 09:28:33;;;;;;;19.52;12.88;;;15.10;65.10;16.60;101518.00;;;;4993884;28;20214;-75
2024/03/22 09:31:05;;;;;;;18.55;12.02;;;15.10;65.20;16.60;101510.00;;;;4992950;28;20208;-78
2024/03/22 09:33:33;;;;;;;19.63;11.32;;;15.10;65.30;16.60;101508.00;;;;4992590;28;20197;-76
2024/03/22 09:36:00;;;;;;;16.73;11.32;;;15.10;65.30;16.70;101518.00;;;;5000612;28;20201;-79
2024/03/22 09:38:26;;;;;;;16.25;12.25;;;15.10;65.40;16.70;101513.00;;;;5003251;28;20193;-79
2024/03/22 09:40:54;;;;;;;15.50;10.10;;;15.10;65.40;16.70;101523.00;;;;4988117;28;20660;-78
2024/03/22 09:43:21;;;;;;;14.40;10.35;;;15.10;65.40;16.70;101519.00;;;;4993278;28;20198;-78
2024/03/22 09:45:49;;;;;;;16.42;10.75;;;15.10;65.40;16.70;101514.00;;;;4993681;28;20279;-79
2024/03/22 09:48:16;;;;;;;14.52;9.02;;;15.10;65.50;16.70;101515.00;;;;4992544;28;20566;-79
2024/03/22 09:50:47;;;;;;;15.82;9.70;;;15.10;65.40;16.70;101522.00;;;;4992396;28;20208;-80
2024/03/22 09:53:17;;;;;;;14.05;9.27;;;15.10;65.50;16.70;101510.00;;;;5002169;28;20577;-78
2024/03/22 09:55:47;;;;;;;10.93;7.80;;;15.20;65.60;16.70;101517.00;;;;5012774;28;20241;-78
2024/03/22 09:58:14;;;;;;;11.70;8.43;;;15.10;65.50;16.70;101517.00;;;;5012674;28;20221;-79
2024/03/22 10:00:41;;;;;;;10.63;7.18;;;15.10;65.50;16.70;101518.00;;;;4998731;28;20223;-77
2024/03/22 10:03:10;;;;;;;11.30;7.57;;;15.10;65.40;16.70;101512.00;;;;4993146;28;20208;-78
2024/03/22 10:05:37;;;;;;;12.38;6.90;;;15.10;65.60;16.70;101507.00;;;;4992672;28;20209;-80
2024/03/22 10:08:05;;;;;;;12.88;7.05;;;15.10;65.60;16.60;101513.00;;;;4992769;28;20198;-79
2024/03/22 10:10:33;;;;;;;11.35;7.60;;;15.10;65.60;16.60;101500.00;;;;5005101;28;20670;-79
2024/03/22 10:13:01;;;;;;;8.52;6.40;;;15.10;65.70;16.60;101494.00;;;;5012473;28;20205;-80
2024/03/22 10:15:30;;;;;;;9.15;6.28;;;15.10;65.80;16.70;101507.00;;;;4998027;28;20208;-78
2024/03/22 10:17:58;;;;;;;9.45;5.88;;;15.10;65.90;16.70;101504.00;;;;4992863;28;20233;-80
2024/03/22 10:20:25;;;;;;;7.38;5.28;;;15.10;66.00;16.70;101501.00;;;;4993273;28;20226;-79
2024/03/22 10:22:58;;;;;;;8.70;5.78;;;15.10;66.10;16.70;101501.00;;;;4992896;28;20204;-79
2024/03/22 10:25:27;;;;;;;8.80;5.60;;;15.10;66.20;16.70;101501.00;;;;4992910;28;20212;-81
2024/03/22 10:27:54;;;;;;;8.30;5.75;;;15.10;66.10;16.70;101503.00;;;;4992627;28;20207;-80
2024/03/22 10:30:23;;;;;;;9.10;6.00;;;15.10;66.20;16.80;101500.00;;;;4991679;28;20221;-82
2024/03/22 10:32:49;;;;;;;8.95;5.38;;;15.10;66.20;16.80;101499.00;;;;4972707;28;20206;-80